Kimper, KY

05:56 PM EST em 27 de Janeiro de 2015 (GMT -0500)
Carroll | Change Station
CLOSE
Current Station
Aeroporto
Location: Jackson,
Altitude: 1381 ft
Estações Meteorológicas Próximas

Elev 1381 ft 37.59 °N, 83.31 °W | Updated 1 hour ago

Céu Limpo
Céu Limpo
32 °F
Aparente 29 °F
N
4
Vento Variável Vento de Variável

Hoje
Máxima -- | Mínima -- °F
--% Possibilidade de Precip.
Ontem
Máxima -- | Mínima -- °F
Precip. -- pol
7:36 AM 5:47 PM
Quarto crescente, 58% visible
Pressão 30.07 pol
Visibilidade 10.0 milhas
Nuvens Céu Limpo
Sensação Térmica 29 °F
Ponto de Orvalho 4 °F
Humidade 31%
Chuva 0.00 pol
Altura de Neve Não disponível
UV 0 em vez de 12
Pólen .10 em vez de 12
Qualidade do Ar Não disponível
Flu Activity Não disponível
METAR KJKL 272153Z AUTO VRB03KT 10SM CLR 00/M16 A3003 RMK AO2 SLP181 T00001156

More Conditions Fewer Conditions

Pressão 30.07 pol
Visibilidade 10.0 milhas
Nuvens Céu Limpo
Sensação Térmica 29 °F
Ponto de Orvalho 4 °F
Humidade 31%
Chuva 0.00 pol
Altura de Neve Não disponível
UV 0 em vez de 12
Pólen .10 em vez de 12
Qualidade do Ar Não disponível
Flu Activity Não disponível
METAR KJKL 272153Z AUTO VRB03KT 10SM CLR 00/M16 A3003 RMK AO2 SLP181 T00001156

More Conditions Fewer Conditions

10-Day Weather Forecast

Almanac

Astronomia

Jan. 27, 2015 Nascer Pôr
Hora atual
Crepúsculo civil
Crepúsculo náutico
Crepúsculo astronómico
Lua
Comprimento da luz visível
Duração do Dia
Tomorrow will be .
, % of the Moon is Illuminated

Extremos de Hoje

situação na parte mais alta situação na parte mais baixa

Community

WunderPhotos

Upload Photos

1,790,960 fotografias inseridas!

WunderBlogs® & News

Nearby

Qualidade do Ar

  Qualidade do Ar Índice da Q.A. Poluente
Not available.

Altura da Neve

Estação altura Altitude

Actividade Sísmisca

Cidade Distância Mag. Hora & Data
Mínima magnitude apresentada é 2.5.

Temperaturas das Águas Costeiras

Local Temperatura

Estações Meteorológicas Próximas